Aérodrome :
LOGIN :

S'inscrire | Disclaimer

   EN    FR    IT 

 










Légende :    VFR   VFR Marginal   IFR   IFR Intensif   IFR Très Intensif
Visi : 
Plafond : 
>= 8 km
>= 3000ft
5 à 8 km
1000 à 3000 ft
1500m à 5 km
500 à 1000 ft
800 à 1500m
200 à 500 ft
< 800m
< 200 ft
Symboles :   Orages  Brouillard  Fortes neiges  Fortes précipitations  Vent > 20 kt
SIGMETs :   Divers  Orages  Givrage  Turbulence  Onde Orograph.  Cendres Volcan.






- Altitude de l'aérodrome : 242 ft
- Code IATA : DUB


EIDW - Dublin

DERNIER METAR :
  • 190930Z 30009KT 9999 FEW007 SCT012 BKN035 08/08 Q1000 NOSIG

METARs EXPIRÉS :
  • 190900Z 29010KT 8000 -SHRA FEW007 BKN012 BKN025 08/07 Q1000 NOSIG
  • 190830Z 29011KT 9999 FEW007 SCT015 BKN032 08/07 Q0999 NOSIG
  • 190800Z 28010KT 9999 FEW010 BKN040 07/06 Q0999 NOSIG
  • 190730Z 28011KT 9999 FEW010 BKN050 07/06 Q0999 NOSIG
  • 190700Z 27011KT 9999 FEW015 BKN050 07/06 Q0998 NOSIG

TAF TAF EIDW
Valide du 19 à 06h jusqu'au 20 à 06h UTC


190500Z 1906/2006 28010KT 9999 FEW020 BKN045
TEMPO 1908/1911 4000 -SHRA BKN012 SCT018CB
PROB40
TEMPO 1908/1911 BKN008
BECMG 1910/1912 36010KT
TEMPO 1911/1918 -SHRA SCT018CB
BECMG 1916/1918 33010KT



MET'MAP, la Météo Aéronautique d'un coup d'oeil ! - Copyright ORBIFLY Décembre 2007 - Disclaimer

ORBIFLY MET'MAP TEAM :

Programmation & Développement : Alexandra Zaïnal
Conception & Développement : Baudouin d'Aumeries
Co-Programmation & Développement : Marc-Olivier Méhu
Soutien technique & logistique : Manuel Goepfert

Contact : metmap@orbifly.com




SOURCES & CREDITS :

   NOAA